Kiron, Iowa
Current Conditions -  °F | °C
As of 3:35 AM on Thursday 23 Oct 2014 (Local Time) from KDNS Reporting Station
Haze Haze  
Wind Chill: 57°   Ceiling: 1300
Heat Index: 57°   Visibility: 4mi
Dew Point: 57°   Wind: 8mph
Humidity: 100%   Direction: 200°SSW
Pressure: 30.01"   Gusts: 15mph
Location:  42.2°N, 95.33°W
Report Text: KDNS 230835Z AUTO 20007G13KT 4SM BR OVC013 14/14 A3001 RMK AO2
Loading
Personal Weather Stations






























Interactive Weather Map
Tropical Storm Tracking
New forecast layout! Learn more

10-Day Weather Forecast

Advertisements
Track Severe Weather on mobile